sensor_id;sensor_type;location;lat;lon;timestamp;P1;durP1;ratioP1;P2;durP2;ratioP2
9661;SDS011;24982;52.344;12.990;2023-05-07T00:00:15;12.63;;;10.50;;
9661;SDS011;24982;52.344;12.990;2023-05-07T00:03:19;13.52;;;10.45;;
9661;SDS011;24982;52.344;12.990;2023-05-07T00:06:22;11.18;;;9.73;;
9661;SDS011;24982;52.344;12.990;2023-05-07T00:09:26;11.73;;;10.52;;
9661;SDS011;24982;52.344;12.990;2023-05-07T00:12:28;11.15;;;10.05;;
9661;SDS011;24982;52.344;12.990;2023-05-07T00:15:31;14.05;;;10.52;;
9661;SDS011;24982;52.344;12.990;2023-05-07T00:18:33;11.98;;;10.50;;
9661;SDS011;24982;52.344;12.990;2023-05-07T00:21:36;11.07;;;9.98;;
9661;SDS011;24982;52.344;12.990;2023-05-07T00:24:38;11.20;;;9.60;;
9661;SDS011;24982;52.344;12.990;2023-05-07T00:27:40;11.43;;;9.75;;
9661;SDS011;24982;52.344;12.990;2023-05-07T00:30:42;10.65;;;9.25;;
9661;SDS011;24982;52.344;12.990;2023-05-07T00:33:44;11.82;;;9.88;;
9661;SDS011;24982;52.344;12.990;2023-05-07T00:36:48;11.35;;;10.15;;
9661;SDS011;24982;52.344;12.990;2023-05-07T00:39:50;10.10;;;8.98;;
9661;SDS011;24982;52.344;12.990;2023-05-07T00:42:52;10.82;;;9.20;;
9661;SDS011;24982;52.344;12.990;2023-05-07T00:45:57;10.57;;;9.48;;
9661;SDS011;24982;52.344;12.990;2023-05-07T00:48:58;10.48;;;9.38;;
9661;SDS011;24982;52.344;12.990;2023-05-07T00:52:03;9.82;;;8.82;;
9661;SDS011;24982;52.344;12.990;2023-05-07T00:55:05;10.80;;;8.77;;
9661;SDS011;24982;52.344;12.990;2023-05-07T00:58:08;10.68;;;8.70;;
9661;SDS011;24982;52.344;12.990;2023-05-07T01:01:10;9.60;;;8.68;;
9661;SDS011;24982;52.344;12.990;2023-05-07T01:04:12;11.77;;;9.15;;
9661;SDS011;24982;52.344;12.990;2023-05-07T01:07:15;9.40;;;8.50;;
9661;SDS011;24982;52.344;12.990;2023-05-07T01:10:17;10.50;;;8.55;;
9661;SDS011;24982;52.344;12.990;2023-05-07T01:13:20;9.13;;;8.23;;
9661;SDS011;24982;52.344;12.990;2023-05-07T01:16:22;9.70;;;8.80;;
9661;SDS011;24982;52.344;12.990;2023-05-07T01:19:25;11.40;;;8.50;;
9661;SDS011;24982;52.344;12.990;2023-05-07T01:22:30;12.25;;;8.35;;
9661;SDS011;24982;52.344;12.990;2023-05-07T01:25:34;9.88;;;8.98;;
9661;SDS011;24982;52.344;12.990;2023-05-07T01:28:36;10.05;;;8.95;;
9661;SDS011;24982;52.344;12.990;2023-05-07T01:31:38;10.18;;;9.10;;
9661;SDS011;24982;52.344;12.990;2023-05-07T01:34:43;11.00;;;9.18;;
9661;SDS011;24982;52.344;12.990;2023-05-07T01:37:48;10.27;;;9.23;;
9661;SDS011;24982;52.344;12.990;2023-05-07T01:40:51;9.57;;;8.65;;
9661;SDS011;24982;52.344;12.990;2023-05-07T01:43:54;9.63;;;8.73;;
9661;SDS011;24982;52.344;12.990;2023-05-07T01:46:57;9.93;;;8.93;;
9661;SDS011;24982;52.344;12.990;2023-05-07T01:50:00;9.40;;;8.50;;
9661;SDS011;24982;52.344;12.990;2023-05-07T01:53:04;10.13;;;8.43;;
9661;SDS011;24982;52.344;12.990;2023-05-07T01:56:06;9.43;;;8.52;;
9661;SDS011;24982;52.344;12.990;2023-05-07T01:59:11;9.32;;;8.43;;
9661;SDS011;24982;52.344;12.990;2023-05-07T02:02:13;9.25;;;8.00;;
9661;SDS011;24982;52.344;12.990;2023-05-07T02:05:17;8.60;;;7.82;;
9661;SDS011;24982;52.344;12.990;2023-05-07T02:08:28;10.55;;;8.82;;
9661;SDS011;24982;52.344;12.990;2023-05-07T02:11:30;8.93;;;8.05;;
9661;SDS011;24982;52.344;12.990;2023-05-07T02:14:32;8.85;;;8.00;;
9661;SDS011;24982;52.344;12.990;2023-05-07T02:17:39;8.95;;;8.05;;
9661;SDS011;24982;52.344;12.990;2023-05-07T02:20:59;9.50;;;8.60;;
9661;SDS011;24982;52.344;12.990;2023-05-07T02:24:02;9.75;;;8.18;;
9661;SDS011;24982;52.344;12.990;2023-05-07T02:27:04;8.48;;;7.70;;
9661;SDS011;24982;52.344;12.990;2023-05-07T02:30:07;8.32;;;7.50;;
9661;SDS011;24982;52.344;12.990;2023-05-07T02:33:09;9.27;;;8.10;;
9661;SDS011;24982;52.344;12.990;2023-05-07T02:36:13;10.85;;;8.05;;
9661;SDS011;24982;52.344;12.990;2023-05-07T02:39:29;8.95;;;8.15;;
9661;SDS011;24982;52.344;12.990;2023-05-07T02:42:31;8.27;;;7.47;;
9661;SDS011;24982;52.344;12.990;2023-05-07T02:45:33;7.85;;;7.15;;
9661;SDS011;24982;52.344;12.990;2023-05-07T02:48:37;10.18;;;7.35;;
9661;SDS011;24982;52.344;12.990;2023-05-07T02:51:39;8.10;;;7.40;;
9661;SDS011;24982;52.344;12.990;2023-05-07T02:54:47;7.60;;;6.90;;
9661;SDS011;24982;52.344;12.990;2023-05-07T02:57:50;8.10;;;7.35;;
9661;SDS011;24982;52.344;12.990;2023-05-07T03:00:52;8.20;;;7.40;;
9661;SDS011;24982;52.344;12.990;2023-05-07T03:04:15;9.80;;;7.57;;
9661;SDS011;24982;52.344;12.990;2023-05-07T03:07:17;7.88;;;7.18;;
9661;SDS011;24982;52.344;12.990;2023-05-07T03:10:20;8.50;;;7.57;;
9661;SDS011;24982;52.344;12.990;2023-05-07T03:13:22;7.93;;;7.13;;
9661;SDS011;24982;52.344;12.990;2023-05-07T03:16:25;7.80;;;7.18;;
9661;SDS011;24982;52.344;12.990;2023-05-07T03:19:27;7.50;;;6.88;;
9661;SDS011;24982;52.344;12.990;2023-05-07T03:22:31;7.57;;;6.88;;
9661;SDS011;24982;52.344;12.990;2023-05-07T03:25:34;9.15;;;7.40;;
9661;SDS011;24982;52.344;12.990;2023-05-07T03:28:36;7.97;;;7.20;;
9661;SDS011;24982;52.344;12.990;2023-05-07T03:31:43;7.75;;;6.93;;
9661;SDS011;24982;52.344;12.990;2023-05-07T03:34:45;8.10;;;7.32;;
9661;SDS011;24982;52.344;12.990;2023-05-07T03:37:48;8.75;;;7.85;;
9661;SDS011;24982;52.344;12.990;2023-05-07T03:40:53;8.70;;;7.22;;
9661;SDS011;24982;52.344;12.990;2023-05-07T03:43:55;8.32;;;7.53;;
9661;SDS011;24982;52.344;12.990;2023-05-07T03:46:57;8.70;;;7.70;;
9661;SDS011;24982;52.344;12.990;2023-05-07T03:50:00;8.77;;;7.88;;
9661;SDS011;24982;52.344;12.990;2023-05-07T03:53:02;8.68;;;7.88;;
9661;SDS011;24982;52.344;12.990;2023-05-07T03:56:11;9.43;;;8.38;;
9661;SDS011;24982;52.344;12.990;2023-05-07T03:59:15;8.93;;;8.13;;
9661;SDS011;24982;52.344;12.990;2023-05-07T04:02:19;9.07;;;8.20;;
9661;SDS011;24982;52.344;12.990;2023-05-07T04:05:21;10.35;;;8.32;;
9661;SDS011;24982;52.344;12.990;2023-05-07T04:08:27;8.63;;;7.60;;
9661;SDS011;24982;52.344;12.990;2023-05-07T04:11:30;9.43;;;7.78;;
9661;SDS011;24982;52.344;12.990;2023-05-07T04:14:33;9.32;;;8.15;;
9661;SDS011;24982;52.344;12.990;2023-05-07T04:17:36;8.85;;;8.05;;
9661;SDS011;24982;52.344;12.990;2023-05-07T04:20:39;10.38;;;7.93;;
9661;SDS011;24982;52.344;12.990;2023-05-07T04:23:45;9.05;;;8.05;;
9661;SDS011;24982;52.344;12.990;2023-05-07T04:26:49;8.55;;;7.68;;
9661;SDS011;24982;52.344;12.990;2023-05-07T04:29:54;8.85;;;7.97;;
9661;SDS011;24982;52.344;12.990;2023-05-07T04:32:56;10.05;;;8.23;;
9661;SDS011;24982;52.344;12.990;2023-05-07T04:36:02;9.15;;;8.10;;
9661;SDS011;24982;52.344;12.990;2023-05-07T04:39:08;8.32;;;7.53;;
9661;SDS011;24982;52.344;12.990;2023-05-07T04:42:15;10.35;;;7.70;;
9661;SDS011;24982;52.344;12.990;2023-05-07T04:45:18;7.93;;;7.13;;
9661;SDS011;24982;52.344;12.990;2023-05-07T04:48:21;8.20;;;7.40;;
9661;SDS011;24982;52.344;12.990;2023-05-07T04:51:25;7.97;;;7.18;;
9661;SDS011;24982;52.344;12.990;2023-05-07T04:54:28;7.85;;;7.15;;
9661;SDS011;24982;52.344;12.990;2023-05-07T04:57:32;7.47;;;6.85;;
9661;SDS011;24982;52.344;12.990;2023-05-07T05:00:34;10.15;;;7.03;;
9661;SDS011;24982;52.344;12.990;2023-05-07T05:03:39;8.18;;;7.38;;
9661;SDS011;24982;52.344;12.990;2023-05-07T05:06:42;9.35;;;7.43;;
9661;SDS011;24982;52.344;12.990;2023-05-07T05:09:45;8.57;;;7.70;;
9661;SDS011;24982;52.344;12.990;2023-05-07T05:12:49;12.38;;;8.27;;
9661;SDS011;24982;52.344;12.990;2023-05-07T05:15:51;9.35;;;8.45;;
9661;SDS011;24982;52.344;12.990;2023-05-07T05:18:53;10.10;;;8.48;;
9661;SDS011;24982;52.344;12.990;2023-05-07T05:21:55;9.63;;;8.73;;
9661;SDS011;24982;52.344;12.990;2023-05-07T05:24:57;8.98;;;8.13;;
9661;SDS011;24982;52.344;12.990;2023-05-07T05:28:02;8.82;;;7.93;;
9661;SDS011;24982;52.344;12.990;2023-05-07T05:31:07;9.05;;;8.18;;
9661;SDS011;24982;52.344;12.990;2023-05-07T05:34:10;8.25;;;7.45;;
9661;SDS011;24982;52.344;12.990;2023-05-07T05:37:13;8.82;;;8.02;;
9661;SDS011;24982;52.344;12.990;2023-05-07T05:40:15;8.32;;;7.53;;
9661;SDS011;24982;52.344;12.990;2023-05-07T05:43:19;8.70;;;7.80;;
9661;SDS011;24982;52.344;12.990;2023-05-07T05:46:22;9.40;;;7.88;;
9661;SDS011;24982;52.344;12.990;2023-05-07T05:49:28;9.15;;;7.80;;
9661;SDS011;24982;52.344;12.990;2023-05-07T05:52:30;8.85;;;7.80;;
9661;SDS011;24982;52.344;12.990;2023-05-07T05:55:33;8.52;;;7.82;;
9661;SDS011;24982;52.344;12.990;2023-05-07T05:58:36;10.95;;;8.05;;
9661;SDS011;24982;52.344;12.990;2023-05-07T06:01:41;8.50;;;7.80;;
9661;SDS011;24982;52.344;12.990;2023-05-07T06:04:43;8.48;;;7.50;;
9661;SDS011;24982;52.344;12.990;2023-05-07T06:07:49;8.10;;;7.40;;
9661;SDS011;24982;52.344;12.990;2023-05-07T06:10:52;8.15;;;7.35;;
9661;SDS011;24982;52.344;12.990;2023-05-07T06:13:55;8.68;;;7.80;;
9661;SDS011;24982;52.344;12.990;2023-05-07T06:16:58;8.30;;;7.50;;
9661;SDS011;24982;52.344;12.990;2023-05-07T06:20:01;8.27;;;7.53;;
9661;SDS011;24982;52.344;12.990;2023-05-07T06:23:03;8.27;;;7.47;;
9661;SDS011;24982;52.344;12.990;2023-05-07T06:26:07;8.60;;;7.70;;
9661;SDS011;24982;52.344;12.990;2023-05-07T06:29:15;9.30;;;8.02;;
9661;SDS011;24982;52.344;12.990;2023-05-07T06:32:18;8.82;;;7.25;;
9661;SDS011;24982;52.344;12.990;2023-05-07T06:35:20;7.80;;;7.10;;
9661;SDS011;24982;52.344;12.990;2023-05-07T06:38:22;8.10;;;7.30;;
9661;SDS011;24982;52.344;12.990;2023-05-07T06:41:24;8.35;;;7.25;;
9661;SDS011;24982;52.344;12.990;2023-05-07T06:44:30;8.55;;;6.88;;
9661;SDS011;24982;52.344;12.990;2023-05-07T06:47:49;7.30;;;6.70;;
9661;SDS011;24982;52.344;12.990;2023-05-07T06:50:52;7.75;;;7.05;;
9661;SDS011;24982;52.344;12.990;2023-05-07T06:53:56;8.18;;;6.85;;
9661;SDS011;24982;52.344;12.990;2023-05-07T06:56:58;9.57;;;6.82;;
9661;SDS011;24982;52.344;12.990;2023-05-07T07:00:03;7.72;;;7.03;;
9661;SDS011;24982;52.344;12.990;2023-05-07T07:03:15;7.20;;;6.47;;
9661;SDS011;24982;52.344;12.990;2023-05-07T07:06:18;7.20;;;6.50;;
9661;SDS011;24982;52.344;12.990;2023-05-07T07:09:21;7.32;;;6.72;;
9661;SDS011;24982;52.344;12.990;2023-05-07T07:12:23;6.45;;;5.95;;
9661;SDS011;24982;52.344;12.990;2023-05-07T07:15:28;6.40;;;5.80;;
9661;SDS011;24982;52.344;12.990;2023-05-07T07:18:30;6.30;;;5.70;;
9661;SDS011;24982;52.344;12.990;2023-05-07T07:21:33;6.22;;;5.63;;
9661;SDS011;24982;52.344;12.990;2023-05-07T07:24:35;6.93;;;6.22;;
9661;SDS011;24982;52.344;12.990;2023-05-07T07:27:39;5.78;;;5.35;;
9661;SDS011;24982;52.344;12.990;2023-05-07T07:30:44;5.95;;;5.38;;
9661;SDS011;24982;52.344;12.990;2023-05-07T07:33:46;7.28;;;5.80;;
9661;SDS011;24982;52.344;12.990;2023-05-07T07:36:50;6.28;;;5.53;;
9661;SDS011;24982;52.344;12.990;2023-05-07T07:39:54;5.90;;;5.40;;
9661;SDS011;24982;52.344;12.990;2023-05-07T07:42:57;6.10;;;5.57;;
9661;SDS011;24982;52.344;12.990;2023-05-07T07:46:01;5.72;;;5.32;;
9661;SDS011;24982;52.344;12.990;2023-05-07T07:49:03;6.22;;;5.72;;
9661;SDS011;24982;52.344;12.990;2023-05-07T07:52:06;5.82;;;5.25;;
9661;SDS011;24982;52.344;12.990;2023-05-07T07:55:10;6.55;;;5.38;;
9661;SDS011;24982;52.344;12.990;2023-05-07T07:58:13;5.63;;;5.05;;
9661;SDS011;24982;52.344;12.990;2023-05-07T08:01:17;5.18;;;4.78;;
9661;SDS011;24982;52.344;12.990;2023-05-07T08:04:20;5.65;;;4.85;;
9661;SDS011;24982;52.344;12.990;2023-05-07T08:07:23;4.43;;;4.13;;
9661;SDS011;24982;52.344;12.990;2023-05-07T08:10:25;4.82;;;3.92;;
9661;SDS011;24982;52.344;12.990;2023-05-07T08:13:33;4.82;;;4.32;;
9661;SDS011;24982;52.344;12.990;2023-05-07T08:16:37;4.30;;;4.00;;
9661;SDS011;24982;52.344;12.990;2023-05-07T08:19:41;3.90;;;3.47;;
9661;SDS011;24982;52.344;12.990;2023-05-07T08:22:46;4.20;;;3.90;;
9661;SDS011;24982;52.344;12.990;2023-05-07T08:25:48;3.78;;;3.47;;
9661;SDS011;24982;52.344;12.990;2023-05-07T08:28:55;4.30;;;3.90;;
9661;SDS011;24982;52.344;12.990;2023-05-07T08:31:58;5.10;;;4.60;;
9661;SDS011;24982;52.344;12.990;2023-05-07T08:35:00;6.13;;;4.22;;
9661;SDS011;24982;52.344;12.990;2023-05-07T08:38:02;4.32;;;3.92;;
9661;SDS011;24982;52.344;12.990;2023-05-07T08:41:04;4.50;;;3.90;;
9661;SDS011;24982;52.344;12.990;2023-05-07T08:44:07;4.07;;;3.72;;
9661;SDS011;24982;52.344;12.990;2023-05-07T08:47:15;4.25;;;3.90;;
9661;SDS011;24982;52.344;12.990;2023-05-07T08:50:19;5.60;;;3.88;;
9661;SDS011;24982;52.344;12.990;2023-05-07T08:53:23;5.40;;;4.03;;
9661;SDS011;24982;52.344;12.990;2023-05-07T08:56:26;3.83;;;3.53;;
9661;SDS011;24982;52.344;12.990;2023-05-07T08:59:29;3.70;;;3.50;;
9661;SDS011;24982;52.344;12.990;2023-05-07T09:02:32;6.10;;;3.70;;
9661;SDS011;24982;52.344;12.990;2023-05-07T09:05:36;3.35;;;3.13;;
9661;SDS011;24982;52.344;12.990;2023-05-07T09:08:43;3.20;;;3.00;;
9661;SDS011;24982;52.344;12.990;2023-05-07T09:11:46;3.53;;;3.22;;
9661;SDS011;24982;52.344;12.990;2023-05-07T09:14:52;4.07;;;3.78;;
9661;SDS011;24982;52.344;12.990;2023-05-07T09:17:56;3.50;;;3.20;;
9661;SDS011;24982;52.344;12.990;2023-05-07T09:21:02;4.18;;;3.10;;
9661;SDS011;24982;52.344;12.990;2023-05-07T09:24:04;4.50;;;3.28;;
9661;SDS011;24982;52.344;12.990;2023-05-07T09:27:11;3.17;;;2.90;;
9661;SDS011;24982;52.344;12.990;2023-05-07T09:30:18;3.55;;;3.25;;
9661;SDS011;24982;52.344;12.990;2023-05-07T09:33:21;3.70;;;2.72;;
9661;SDS011;24982;52.344;12.990;2023-05-07T09:36:28;4.20;;;3.38;;
9661;SDS011;24982;52.344;12.990;2023-05-07T09:39:38;2.90;;;2.70;;
9661;SDS011;24982;52.344;12.990;2023-05-07T09:42:41;3.10;;;2.80;;
9661;SDS011;24982;52.344;12.990;2023-05-07T09:45:43;3.40;;;3.03;;
9661;SDS011;24982;52.344;12.990;2023-05-07T09:48:53;3.10;;;2.70;;
9661;SDS011;24982;52.344;12.990;2023-05-07T09:52:00;3.38;;;3.08;;
9661;SDS011;24982;52.344;12.990;2023-05-07T09:55:07;4.57;;;2.97;;
9661;SDS011;24982;52.344;12.990;2023-05-07T09:58:11;2.88;;;2.65;;
9661;SDS011;24982;52.344;12.990;2023-05-07T10:01:17;2.95;;;2.75;;
9661;SDS011;24982;52.344;12.990;2023-05-07T10:04:23;2.30;;;2.20;;
9661;SDS011;24982;52.344;12.990;2023-05-07T10:07:27;2.30;;;2.17;;
9661;SDS011;24982;52.344;12.990;2023-05-07T10:10:33;2.90;;;2.22;;
9661;SDS011;24982;52.344;12.990;2023-05-07T10:13:40;2.35;;;2.25;;
9661;SDS011;24982;52.344;12.990;2023-05-07T10:16:49;3.22;;;2.20;;
9661;SDS011;24982;52.344;12.990;2023-05-07T10:19:53;2.70;;;2.50;;
9661;SDS011;24982;52.344;12.990;2023-05-07T10:22:57;2.40;;;2.20;;
9661;SDS011;24982;52.344;12.990;2023-05-07T10:26:08;2.55;;;2.42;;
9661;SDS011;24982;52.344;12.990;2023-05-07T10:29:12;2.33;;;2.22;;
9661;SDS011;24982;52.344;12.990;2023-05-07T10:32:27;2.95;;;2.47;;
9661;SDS011;24982;52.344;12.990;2023-05-07T10:35:45;5.18;;;3.47;;
9661;SDS011;24982;52.344;12.990;2023-05-07T10:38:50;2.83;;;2.70;;
9661;SDS011;24982;52.344;12.990;2023-05-07T10:41:52;3.47;;;3.20;;
9661;SDS011;24982;52.344;12.990;2023-05-07T10:44:54;3.63;;;3.30;;
9661;SDS011;24982;52.344;12.990;2023-05-07T10:48:08;2.72;;;2.53;;
9661;SDS011;24982;52.344;12.990;2023-05-07T10:51:19;2.30;;;2.20;;
9661;SDS011;24982;52.344;12.990;2023-05-07T10:54:28;7.07;;;2.50;;
9661;SDS011;24982;52.344;12.990;2023-05-07T10:57:36;2.10;;;2.00;;
9661;SDS011;24982;52.344;12.990;2023-05-07T11:00:47;1.92;;;1.83;;
9661;SDS011;24982;52.344;12.990;2023-05-07T11:07:38;2.90;;;2.70;;
9661;SDS011;24982;52.344;12.990;2023-05-07T11:10:55;2.60;;;2.45;;
9661;SDS011;24982;52.344;12.990;2023-05-07T11:14:18;4.10;;;2.72;;
9661;SDS011;24982;52.344;12.990;2023-05-07T11:17:59;2.95;;;2.80;;
9661;SDS011;24982;52.344;12.990;2023-05-07T11:21:08;3.22;;;3.03;;
9661;SDS011;24982;52.344;12.990;2023-05-07T11:24:19;3.45;;;2.92;;
9661;SDS011;24982;52.344;12.990;2023-05-07T11:27:27;2.95;;;2.75;;
9661;SDS011;24982;52.344;12.990;2023-05-07T11:30:30;2.60;;;2.50;;
9661;SDS011;24982;52.344;12.990;2023-05-07T11:33:33;2.20;;;2.10;;
9661;SDS011;24982;52.344;12.990;2023-05-07T11:36:41;2.53;;;2.42;;
9661;SDS011;24982;52.344;12.990;2023-05-07T11:39:49;2.95;;;2.28;;
9661;SDS011;24982;52.344;12.990;2023-05-07T11:42:54;2.80;;;2.60;;
9661;SDS011;24982;52.344;12.990;2023-05-07T11:46:05;2.70;;;2.60;;
9661;SDS011;24982;52.344;12.990;2023-05-07T11:49:09;2.40;;;2.30;;
9661;SDS011;24982;52.344;12.990;2023-05-07T11:52:11;2.58;;;2.38;;
9661;SDS011;24982;52.344;12.990;2023-05-07T11:55:17;2.50;;;2.40;;
9661;SDS011;24982;52.344;12.990;2023-05-07T11:58:20;3.10;;;2.38;;
9661;SDS011;24982;52.344;12.990;2023-05-07T12:01:23;2.20;;;2.10;;
9661;SDS011;24982;52.344;12.990;2023-05-07T12:04:25;2.00;;;2.00;;
9661;SDS011;24982;52.344;12.990;2023-05-07T12:07:27;1.92;;;1.90;;
9661;SDS011;24982;52.344;12.990;2023-05-07T12:10:30;2.20;;;2.10;;
9661;SDS011;24982;52.344;12.990;2023-05-07T12:13:32;1.92;;;1.83;;
9661;SDS011;24982;52.344;12.990;2023-05-07T12:16:34;2.08;;;1.83;;
9661;SDS011;24982;52.344;12.990;2023-05-07T12:19:37;2.00;;;2.00;;
9661;SDS011;24982;52.344;12.990;2023-05-07T12:22:40;2.10;;;2.00;;
9661;SDS011;24982;52.344;12.990;2023-05-07T12:25:43;1.85;;;1.73;;
9661;SDS011;24982;52.344;12.990;2023-05-07T12:28:47;2.25;;;1.95;;
9661;SDS011;24982;52.344;12.990;2023-05-07T12:31:50;7.15;;;1.98;;
9661;SDS011;24982;52.344;12.990;2023-05-07T12:34:52;1.73;;;1.73;;
9661;SDS011;24982;52.344;12.990;2023-05-07T12:37:57;2.42;;;2.00;;
9661;SDS011;24982;52.344;12.990;2023-05-07T12:41:05;2.20;;;2.00;;
9661;SDS011;24982;52.344;12.990;2023-05-07T12:44:08;1.88;;;1.77;;
9661;SDS011;24982;52.344;12.990;2023-05-07T12:47:10;1.83;;;1.70;;
9661;SDS011;24982;52.344;12.990;2023-05-07T12:50:13;2.00;;;1.90;;
9661;SDS011;24982;52.344;12.990;2023-05-07T12:53:15;2.80;;;2.00;;
9661;SDS011;24982;52.344;12.990;2023-05-07T12:56:18;2.03;;;1.80;;
9661;SDS011;24982;52.344;12.990;2023-05-07T12:59:30;4.38;;;2.20;;
9661;SDS011;24982;52.344;12.990;2023-05-07T13:02:32;2.15;;;2.05;;
9661;SDS011;24982;52.344;12.990;2023-05-07T13:05:35;1.80;;;1.70;;
9661;SDS011;24982;52.344;12.990;2023-05-07T13:08:38;2.03;;;1.92;;
9661;SDS011;24982;52.344;12.990;2023-05-07T13:11:44;1.90;;;1.80;;
9661;SDS011;24982;52.344;12.990;2023-05-07T13:14:46;1.80;;;1.70;;
9661;SDS011;24982;52.344;12.990;2023-05-07T13:17:48;1.73;;;1.67;;
9661;SDS011;24982;52.344;12.990;2023-05-07T13:20:50;3.95;;;1.85;;
9661;SDS011;24982;52.344;12.990;2023-05-07T13:23:52;1.95;;;1.85;;
9661;SDS011;24982;52.344;12.990;2023-05-07T13:26:55;1.90;;;1.80;;
9661;SDS011;24982;52.344;12.990;2023-05-07T13:29:57;1.70;;;1.60;;
9661;SDS011;24982;52.344;12.990;2023-05-07T13:32:59;1.48;;;1.48;;
9661;SDS011;24982;52.344;12.990;2023-05-07T13:36:01;5.00;;;1.70;;
9661;SDS011;24982;52.344;12.990;2023-05-07T13:39:05;2.53;;;1.65;;
9661;SDS011;24982;52.344;12.990;2023-05-07T13:42:09;2.72;;;1.60;;
9661;SDS011;24982;52.344;12.990;2023-05-07T13:45:10;1.90;;;1.60;;
9661;SDS011;24982;52.344;12.990;2023-05-07T13:48:14;1.73;;;1.70;;
9661;SDS011;24982;52.344;12.990;2023-05-07T13:51:16;1.85;;;1.75;;
9661;SDS011;24982;52.344;12.990;2023-05-07T13:54:18;2.38;;;1.52;;
9661;SDS011;24982;52.344;12.990;2023-05-07T13:57:22;1.50;;;1.45;;
9661;SDS011;24982;52.344;12.990;2023-05-07T14:00:27;1.33;;;1.33;;
9661;SDS011;24982;52.344;12.990;2023-05-07T14:03:32;1.40;;;1.40;;
9661;SDS011;24982;52.344;12.990;2023-05-07T14:06:35;1.40;;;1.40;;
9661;SDS011;24982;52.344;12.990;2023-05-07T14:09:37;1.50;;;1.50;;
9661;SDS011;24982;52.344;12.990;2023-05-07T14:12:40;1.40;;;1.40;;
9661;SDS011;24982;52.344;12.990;2023-05-07T14:15:42;3.70;;;1.70;;
9661;SDS011;24982;52.344;12.990;2023-05-07T14:18:46;1.67;;;1.58;;
9661;SDS011;24982;52.344;12.990;2023-05-07T14:21:48;1.80;;;1.70;;
9661;SDS011;24982;52.344;12.990;2023-05-07T14:24:53;1.55;;;1.45;;
9661;SDS011;24982;52.344;12.990;2023-05-07T14:27:56;1.60;;;1.60;;
9661;SDS011;24982;52.344;12.990;2023-05-07T14:30:58;1.60;;;1.50;;
9661;SDS011;24982;52.344;12.990;2023-05-07T14:34:00;1.80;;;1.38;;
9661;SDS011;24982;52.344;12.990;2023-05-07T14:37:02;1.52;;;1.42;;
9661;SDS011;24982;52.344;12.990;2023-05-07T14:40:05;1.45;;;1.45;;
9661;SDS011;24982;52.344;12.990;2023-05-07T14:43:09;1.58;;;1.30;;
9661;SDS011;24982;52.344;12.990;2023-05-07T14:46:11;1.48;;;1.35;;
9661;SDS011;24982;52.344;12.990;2023-05-07T14:49:13;1.40;;;1.40;;
9661;SDS011;24982;52.344;12.990;2023-05-07T14:52:17;1.50;;;1.50;;
9661;SDS011;24982;52.344;12.990;2023-05-07T14:55:19;1.30;;;1.30;;
9661;SDS011;24982;52.344;12.990;2023-05-07T14:58:23;1.70;;;1.60;;
9661;SDS011;24982;52.344;12.990;2023-05-07T15:01:25;1.50;;;1.40;;
9661;SDS011;24982;52.344;12.990;2023-05-07T15:04:27;1.52;;;1.42;;
9661;SDS011;24982;52.344;12.990;2023-05-07T15:07:29;1.63;;;1.63;;
9661;SDS011;24982;52.344;12.990;2023-05-07T15:10:34;1.77;;;1.67;;
9661;SDS011;24982;52.344;12.990;2023-05-07T15:13:42;1.63;;;1.52;;
9661;SDS011;24982;52.344;12.990;2023-05-07T15:16:44;1.40;;;1.40;;
9661;SDS011;24982;52.344;12.990;2023-05-07T15:19:46;1.30;;;1.30;;
9661;SDS011;24982;52.344;12.990;2023-05-07T15:22:48;1.50;;;1.50;;
9661;SDS011;24982;52.344;12.990;2023-05-07T15:25:50;1.40;;;1.40;;
9661;SDS011;24982;52.344;12.990;2023-05-07T15:28:54;1.60;;;1.50;;
9661;SDS011;24982;52.344;12.990;2023-05-07T15:31:57;1.58;;;1.58;;
9661;SDS011;24982;52.344;12.990;2023-05-07T15:34:59;1.23;;;1.23;;
9661;SDS011;24982;52.344;12.990;2023-05-07T15:38:04;1.70;;;1.60;;
9661;SDS011;24982;52.344;12.990;2023-05-07T15:41:06;1.80;;;1.70;;
9661;SDS011;24982;52.344;12.990;2023-05-07T15:44:10;1.20;;;1.20;;
9661;SDS011;24982;52.344;12.990;2023-05-07T15:47:12;1.80;;;1.70;;
9661;SDS011;24982;52.344;12.990;2023-05-07T15:50:14;2.65;;;1.70;;
9661;SDS011;24982;52.344;12.990;2023-05-07T15:53:16;1.58;;;1.50;;
9661;SDS011;24982;52.344;12.990;2023-05-07T15:56:18;1.80;;;1.70;;
9661;SDS011;24982;52.344;12.990;2023-05-07T15:59:22;1.50;;;1.45;;
9661;SDS011;24982;52.344;12.990;2023-05-07T16:02:24;1.75;;;1.70;;
9661;SDS011;24982;52.344;12.990;2023-05-07T16:05:26;1.52;;;1.50;;
9661;SDS011;24982;52.344;12.990;2023-05-07T16:08:28;2.13;;;1.60;;
9661;SDS011;24982;52.344;12.990;2023-05-07T16:11:30;1.50;;;1.50;;
9661;SDS011;24982;52.344;12.990;2023-05-07T16:14:34;2.17;;;1.90;;
9661;SDS011;24982;52.344;12.990;2023-05-07T16:17:36;1.52;;;1.50;;
9661;SDS011;24982;52.344;12.990;2023-05-07T16:20:40;2.00;;;1.85;;
9661;SDS011;24982;52.344;12.990;2023-05-07T16:23:43;1.73;;;1.50;;
9661;SDS011;24982;52.344;12.990;2023-05-07T16:26:46;1.48;;;1.48;;
9661;SDS011;24982;52.344;12.990;2023-05-07T16:29:49;1.58;;;1.50;;
9661;SDS011;24982;52.344;12.990;2023-05-07T16:32:51;1.60;;;1.60;;
9661;SDS011;24982;52.344;12.990;2023-05-07T16:35:53;1.55;;;1.50;;
9661;SDS011;24982;52.344;12.990;2023-05-07T16:38:55;2.63;;;1.50;;
9661;SDS011;24982;52.344;12.990;2023-05-07T16:41:57;1.42;;;1.33;;
9661;SDS011;24982;52.344;12.990;2023-05-07T16:45:00;1.60;;;1.50;;
9661;SDS011;24982;52.344;12.990;2023-05-07T16:48:03;1.50;;;1.50;;
9661;SDS011;24982;52.344;12.990;2023-05-07T16:51:07;1.50;;;1.50;;
9661;SDS011;24982;52.344;12.990;2023-05-07T16:54:09;1.50;;;1.50;;
9661;SDS011;24982;52.344;12.990;2023-05-07T16:57:11;1.83;;;1.73;;
9661;SDS011;24982;52.344;12.990;2023-05-07T17:00:15;2.40;;;1.50;;
9661;SDS011;24982;52.344;12.990;2023-05-07T17:03:17;1.40;;;1.40;;
9661;SDS011;24982;52.344;12.990;2023-05-07T17:06:19;1.20;;;1.20;;
9661;SDS011;24982;52.344;12.990;2023-05-07T17:09:21;1.15;;;1.15;;
9661;SDS011;24982;52.344;12.990;2023-05-07T17:12:23;2.42;;;1.35;;
9661;SDS011;24982;52.344;12.990;2023-05-07T17:15:27;1.30;;;1.30;;
9661;SDS011;24982;52.344;12.990;2023-05-07T17:18:30;1.40;;;1.40;;
9661;SDS011;24982;52.344;12.990;2023-05-07T17:21:32;1.60;;;1.50;;
9661;SDS011;24982;52.344;12.990;2023-05-07T17:24:35;2.78;;;1.40;;
9661;SDS011;24982;52.344;12.990;2023-05-07T17:27:36;1.52;;;1.40;;
9661;SDS011;24982;52.344;12.990;2023-05-07T17:30:40;6.47;;;1.65;;
9661;SDS011;24982;52.344;12.990;2023-05-07T17:33:42;1.60;;;1.50;;
9661;SDS011;24982;52.344;12.990;2023-05-07T17:36:44;2.67;;;1.42;;
9661;SDS011;24982;52.344;12.990;2023-05-07T17:39:46;1.38;;;1.38;;
9661;SDS011;24982;52.344;12.990;2023-05-07T17:42:48;1.45;;;1.42;;
9661;SDS011;24982;52.344;12.990;2023-05-07T17:45:52;2.05;;;1.40;;
9661;SDS011;24982;52.344;12.990;2023-05-07T17:48:54;1.45;;;1.42;;
9661;SDS011;24982;52.344;12.990;2023-05-07T17:51:57;1.80;;;1.70;;
9661;SDS011;24982;52.344;12.990;2023-05-07T17:54:59;1.63;;;1.52;;
9661;SDS011;24982;52.344;12.990;2023-05-07T17:58:01;1.73;;;1.63;;
9661;SDS011;24982;52.344;12.990;2023-05-07T18:01:04;1.50;;;1.50;;
9661;SDS011;24982;52.344;12.990;2023-05-07T18:04:07;1.70;;;1.60;;
9661;SDS011;24982;52.344;12.990;2023-05-07T18:07:09;2.78;;;1.60;;
9661;SDS011;24982;52.344;12.990;2023-05-07T18:10:11;1.45;;;1.45;;
9661;SDS011;24982;52.344;12.990;2023-05-07T18:13:13;1.90;;;1.80;;
9661;SDS011;24982;52.344;12.990;2023-05-07T18:16:17;1.73;;;1.67;;
9661;SDS011;24982;52.344;12.990;2023-05-07T18:19:19;2.58;;;1.50;;
9661;SDS011;24982;52.344;12.990;2023-05-07T18:22:21;1.48;;;1.48;;
9661;SDS011;24982;52.344;12.990;2023-05-07T18:25:23;1.58;;;1.48;;
9661;SDS011;24982;52.344;12.990;2023-05-07T18:28:25;1.50;;;1.50;;